sensor_id;sensor_type;location;lat;lon;timestamp;pressure;altitude;pressure_sealevel;temperature;humidity
65897;BME280;52677;50.898;10.854;2023-02-18T00:01:02;98901.31;;;9.49;100.00
65897;BME280;52677;50.898;10.854;2023-02-18T00:03:03;98888.72;;;9.51;100.00
65897;BME280;52677;50.898;10.854;2023-02-18T00:05:04;98900.25;;;9.53;100.00
65897;BME280;52677;50.898;10.854;2023-02-18T00:07:05;98883.88;;;9.45;100.00
65897;BME280;52677;50.898;10.854;2023-02-18T00:09:05;98888.13;;;9.42;100.00
65897;BME280;52677;50.898;10.854;2023-02-18T00:11:06;98897.00;;;9.51;100.00
65897;BME280;52677;50.898;10.854;2023-02-18T00:13:06;98886.88;;;9.55;100.00
65897;BME280;52677;50.898;10.854;2023-02-18T00:15:07;98889.69;;;9.59;100.00
65897;BME280;52677;50.898;10.854;2023-02-18T00:17:08;98888.63;;;9.64;100.00
65897;BME280;52677;50.898;10.854;2023-02-18T00:19:14;98897.34;;;9.66;100.00
65897;BME280;52677;50.898;10.854;2023-02-18T00:21:15;98882.81;;;9.69;100.00
65897;BME280;52677;50.898;10.854;2023-02-18T00:23:15;98881.50;;;9.63;100.00
65897;BME280;52677;50.898;10.854;2023-02-18T00:25:16;98890.16;;;9.61;100.00
65897;BME280;52677;50.898;10.854;2023-02-18T00:27:16;98892.13;;;9.61;100.00
65897;BME280;52677;50.898;10.854;2023-02-18T00:29:18;98884.63;;;9.61;100.00
65897;BME280;52677;50.898;10.854;2023-02-18T00:31:22;98890.50;;;9.60;100.00
65897;BME280;52677;50.898;10.854;2023-02-18T00:33:23;98887.28;;;9.57;100.00
65897;BME280;52677;50.898;10.854;2023-02-18T00:35:23;98898.34;;;9.57;100.00
65897;BME280;52677;50.898;10.854;2023-02-18T00:37:24;98892.13;;;9.61;100.00
65897;BME280;52677;50.898;10.854;2023-02-18T00:39:24;98880.81;;;9.50;100.00
65897;BME280;52677;50.898;10.854;2023-02-18T00:41:26;98887.94;;;9.51;100.00
65897;BME280;52677;50.898;10.854;2023-02-18T00:43:27;98885.84;;;9.44;100.00
65897;BME280;52677;50.898;10.854;2023-02-18T00:45:27;98897.69;;;9.45;100.00
65897;BME280;52677;50.898;10.854;2023-02-18T00:47:27;98904.97;;;9.53;100.00
65897;BME280;52677;50.898;10.854;2023-02-18T00:49:27;98895.50;;;9.54;100.00
65897;BME280;52677;50.898;10.854;2023-02-18T00:51:30;98902.75;;;9.43;100.00
65897;BME280;52677;50.898;10.854;2023-02-18T00:53:34;98900.47;;;9.29;100.00
65897;BME280;52677;50.898;10.854;2023-02-18T00:55:42;98907.59;;;9.30;100.00
65897;BME280;52677;50.898;10.854;2023-02-18T00:57:42;98888.09;;;9.23;100.00
65897;BME280;52677;50.898;10.854;2023-02-18T00:59:43;98900.66;;;9.20;100.00
65897;BME280;52677;50.898;10.854;2023-02-18T01:01:43;98892.75;;;9.19;100.00
65897;BME280;52677;50.898;10.854;2023-02-18T01:03:43;98905.22;;;9.13;100.00
65897;BME280;52677;50.898;10.854;2023-02-18T01:05:44;98899.44;;;9.02;100.00
65897;BME280;52677;50.898;10.854;2023-02-18T01:07:45;98903.53;;;8.92;100.00
65897;BME280;52677;50.898;10.854;2023-02-18T01:09:45;98897.56;;;8.90;100.00
65897;BME280;52677;50.898;10.854;2023-02-18T01:11:45;98909.03;;;8.92;100.00
65897;BME280;52677;50.898;10.854;2023-02-18T01:13:46;98908.72;;;8.94;100.00
65897;BME280;52677;50.898;10.854;2023-02-18T01:15:46;98902.22;;;8.86;100.00
65897;BME280;52677;50.898;10.854;2023-02-18T01:17:47;98901.31;;;8.82;100.00
65897;BME280;52677;50.898;10.854;2023-02-18T01:19:48;98902.66;;;8.88;100.00
65897;BME280;52677;50.898;10.854;2023-02-18T01:21:48;98898.09;;;8.80;100.00
65897;BME280;52677;50.898;10.854;2023-02-18T01:23:48;98911.09;;;8.80;100.00
65897;BME280;52677;50.898;10.854;2023-02-18T01:25:49;98901.84;;;8.72;100.00
65897;BME280;52677;50.898;10.854;2023-02-18T01:27:49;98906.28;;;8.61;100.00
65897;BME280;52677;50.898;10.854;2023-02-18T01:29:50;98896.22;;;8.68;100.00
65897;BME280;52677;50.898;10.854;2023-02-18T01:31:50;98900.84;;;8.64;100.00
65897;BME280;52677;50.898;10.854;2023-02-18T01:33:50;98883.13;;;8.50;100.00
65897;BME280;52677;50.898;10.854;2023-02-18T01:35:51;98896.91;;;8.50;100.00
65897;BME280;52677;50.898;10.854;2023-02-18T01:37:51;98898.09;;;8.49;100.00
65897;BME280;52677;50.898;10.854;2023-02-18T01:39:52;98897.19;;;8.44;100.00
65897;BME280;52677;50.898;10.854;2023-02-18T01:41:52;98902.72;;;8.44;100.00
65897;BME280;52677;50.898;10.854;2023-02-18T01:44:13;98898.69;;;8.42;100.00
65897;BME280;52677;50.898;10.854;2023-02-18T01:46:20;98906.44;;;8.36;100.00
65897;BME280;52677;50.898;10.854;2023-02-18T01:48:29;98896.34;;;8.28;100.00
65897;BME280;52677;50.898;10.854;2023-02-18T01:50:35;98897.38;;;8.36;100.00
65897;BME280;52677;50.898;10.854;2023-02-18T01:52:37;98903.34;;;8.26;100.00
65897;BME280;52677;50.898;10.854;2023-02-18T01:54:49;98913.72;;;8.16;100.00
65897;BME280;52677;50.898;10.854;2023-02-18T01:56:58;98914.59;;;8.05;100.00
65897;BME280;52677;50.898;10.854;2023-02-18T01:59:02;98910.72;;;7.94;100.00
65897;BME280;52677;50.898;10.854;2023-02-18T02:01:05;98918.53;;;7.92;100.00
65897;BME280;52677;50.898;10.854;2023-02-18T02:03:06;98922.44;;;7.91;100.00
65897;BME280;52677;50.898;10.854;2023-02-18T02:05:07;98922.53;;;7.94;100.00
65897;BME280;52677;50.898;10.854;2023-02-18T02:07:07;98918.22;;;7.81;100.00
65897;BME280;52677;50.898;10.854;2023-02-18T02:09:10;98908.91;;;7.85;100.00
65897;BME280;52677;50.898;10.854;2023-02-18T02:11:17;98915.13;;;7.82;100.00
65897;BME280;52677;50.898;10.854;2023-02-18T02:13:34;98917.78;;;7.79;100.00
65897;BME280;52677;50.898;10.854;2023-02-18T02:15:48;98902.28;;;7.74;100.00
65897;BME280;52677;50.898;10.854;2023-02-18T02:25:18;98899.53;;;7.74;100.00
65897;BME280;52677;50.898;10.854;2023-02-18T02:27:53;98902.44;;;7.66;100.00
65897;BME280;52677;50.898;10.854;2023-02-18T02:32:35;98883.59;;;7.68;100.00
65897;BME280;52677;50.898;10.854;2023-02-18T02:34:57;98895.09;;;7.70;100.00
65897;BME280;52677;50.898;10.854;2023-02-18T02:37:31;98891.25;;;7.74;100.00
65897;BME280;52677;50.898;10.854;2023-02-18T02:39:46;98886.00;;;7.69;100.00
65897;BME280;52677;50.898;10.854;2023-02-18T02:42:07;98884.88;;;7.70;100.00
65897;BME280;52677;50.898;10.854;2023-02-18T02:44:19;98892.88;;;7.75;100.00
65897;BME280;52677;50.898;10.854;2023-02-18T02:46:30;98884.88;;;7.70;100.00
65897;BME280;52677;50.898;10.854;2023-02-18T02:53:27;98895.75;;;7.67;100.00
65897;BME280;52677;50.898;10.854;2023-02-18T02:55:29;98872.34;;;7.60;100.00
65897;BME280;52677;50.898;10.854;2023-02-18T02:59:30;98864.91;;;7.61;100.00
65897;BME280;52677;50.898;10.854;2023-02-18T03:06:20;98860.06;;;7.70;100.00
65897;BME280;52677;50.898;10.854;2023-02-18T03:10:53;98875.09;;;7.73;100.00
65897;BME280;52677;50.898;10.854;2023-02-18T03:15:32;98863.06;;;7.93;100.00
65897;BME280;52677;50.898;10.854;2023-02-18T03:17:45;98848.53;;;8.08;100.00
65897;BME280;52677;50.898;10.854;2023-02-18T03:19:54;98860.19;;;8.17;100.00
65897;BME280;52677;50.898;10.854;2023-02-18T03:21:59;98862.91;;;8.30;100.00
65897;BME280;52677;50.898;10.854;2023-02-18T03:24:12;98858.75;;;8.36;100.00
65897;BME280;52677;50.898;10.854;2023-02-18T03:26:16;98858.50;;;8.57;100.00
65897;BME280;52677;50.898;10.854;2023-02-18T03:28:19;98853.72;;;8.54;100.00
65897;BME280;52677;50.898;10.854;2023-02-18T03:30:28;98860.91;;;8.58;100.00
65897;BME280;52677;50.898;10.854;2023-02-18T03:32:30;98862.06;;;8.57;100.00
65897;BME280;52677;50.898;10.854;2023-02-18T03:34:38;98848.44;;;8.64;100.00
65897;BME280;52677;50.898;10.854;2023-02-18T03:36:41;98840.97;;;8.65;100.00
65897;BME280;52677;50.898;10.854;2023-02-18T03:38:45;98834.22;;;8.62;100.00
65897;BME280;52677;50.898;10.854;2023-02-18T03:40:46;98851.66;;;8.66;100.00
65897;BME280;52677;50.898;10.854;2023-02-18T03:42:47;98845.59;;;8.77;100.00
65897;BME280;52677;50.898;10.854;2023-02-18T03:44:47;98850.31;;;8.76;100.00
65897;BME280;52677;50.898;10.854;2023-02-18T03:46:47;98845.59;;;8.77;100.00
65897;BME280;52677;50.898;10.854;2023-02-18T03:48:48;98845.75;;;8.84;100.00
65897;BME280;52677;50.898;10.854;2023-02-18T03:50:48;98856.44;;;8.85;100.00
65897;BME280;52677;50.898;10.854;2023-02-18T03:52:48;98848.53;;;8.84;100.00
65897;BME280;52677;50.898;10.854;2023-02-18T03:54:49;98840.00;;;8.73;100.00
65897;BME280;52677;50.898;10.854;2023-02-18T03:56:50;98841.69;;;8.78;100.00
65897;BME280;52677;50.898;10.854;2023-02-18T03:58:50;98847.28;;;8.81;100.00
65897;BME280;52677;50.898;10.854;2023-02-18T04:00:51;98847.34;;;8.85;100.00
65897;BME280;52677;50.898;10.854;2023-02-18T04:02:51;98848.63;;;8.87;100.00
65897;BME280;52677;50.898;10.854;2023-02-18T04:04:51;98835.44;;;8.81;100.00
65897;BME280;52677;50.898;10.854;2023-02-18T04:06:52;98835.38;;;8.77;100.00
65897;BME280;52677;50.898;10.854;2023-02-18T04:08:52;98832.69;;;8.81;100.00
65897;BME280;52677;50.898;10.854;2023-02-18T04:10:52;98826.28;;;8.77;100.00
65897;BME280;52677;50.898;10.854;2023-02-18T04:12:53;98828.22;;;8.76;100.00
65897;BME280;52677;50.898;10.854;2023-02-18T04:14:53;98822.72;;;8.76;100.00
65897;BME280;52677;50.898;10.854;2023-02-18T04:16:53;98815.69;;;8.79;100.00
65897;BME280;52677;50.898;10.854;2023-02-18T04:18:54;98826.09;;;8.85;100.00
65897;BME280;52677;50.898;10.854;2023-02-18T04:20:54;98810.34;;;8.86;100.00
65897;BME280;52677;50.898;10.854;2023-02-18T04:22:54;98814.25;;;8.85;100.00
65897;BME280;52677;50.898;10.854;2023-02-18T04:24:55;98817.00;;;8.85;100.00
65897;BME280;52677;50.898;10.854;2023-02-18T04:26:55;98803.13;;;8.81;100.00
65897;BME280;52677;50.898;10.854;2023-02-18T04:28:55;98805.91;;;8.81;100.00
65897;BME280;52677;50.898;10.854;2023-02-18T04:30:55;98807.50;;;8.82;100.00
65897;BME280;52677;50.898;10.854;2023-02-18T04:32:56;98805.72;;;8.74;100.00
65897;BME280;52677;50.898;10.854;2023-02-18T04:34:56;98808.06;;;8.72;100.00
65897;BME280;52677;50.898;10.854;2023-02-18T04:36:56;98787.41;;;8.66;100.00
65897;BME280;52677;50.898;10.854;2023-02-18T04:38:57;98794.31;;;8.76;100.00
65897;BME280;52677;50.898;10.854;2023-02-18T04:40:58;98790.16;;;8.82;100.00
65897;BME280;52677;50.898;10.854;2023-02-18T04:42:59;98798.41;;;8.82;100.00
65897;BME280;52677;50.898;10.854;2023-02-18T04:44:59;98812.16;;;8.78;100.00
65897;BME280;52677;50.898;10.854;2023-02-18T04:47:01;98808.59;;;8.78;100.00
65897;BME280;52677;50.898;10.854;2023-02-18T04:49:01;98814.97;;;8.82;100.00
65897;BME280;52677;50.898;10.854;2023-02-18T04:51:02;98803.22;;;8.85;100.00
65897;BME280;52677;50.898;10.854;2023-02-18T04:53:04;98801.25;;;8.85;100.00
65897;BME280;52677;50.898;10.854;2023-02-18T04:55:05;98784.63;;;8.82;100.00
65897;BME280;52677;50.898;10.854;2023-02-18T04:57:05;98802.72;;;8.79;100.00
65897;BME280;52677;50.898;10.854;2023-02-18T04:59:05;98794.06;;;8.81;100.00
65897;BME280;52677;50.898;10.854;2023-02-18T05:01:06;98790.16;;;8.82;100.00
65897;BME280;52677;50.898;10.854;2023-02-18T05:03:06;98802.78;;;8.83;100.00
65897;BME280;52677;50.898;10.854;2023-02-18T05:05:07;98789.94;;;8.90;100.00
65897;BME280;52677;50.898;10.854;2023-02-18T05:07:07;98780.63;;;8.79;100.00
65897;BME280;52677;50.898;10.854;2023-02-18T05:09:08;98780.91;;;8.74;100.00
65897;BME280;52677;50.898;10.854;2023-02-18T05:11:09;98773.41;;;8.75;100.00
65897;BME280;52677;50.898;10.854;2023-02-18T05:13:09;98771.47;;;8.75;100.00
65897;BME280;52677;50.898;10.854;2023-02-18T05:15:10;98768.63;;;8.71;100.00
65897;BME280;52677;50.898;10.854;2023-02-18T05:17:10;98752.88;;;8.72;100.00
65897;BME280;52677;50.898;10.854;2023-02-18T05:19:14;98766.41;;;8.77;100.00
65897;BME280;52677;50.898;10.854;2023-02-18T05:21:15;98762.13;;;8.80;100.00
65897;BME280;52677;50.898;10.854;2023-02-18T05:23:15;98748.31;;;8.80;100.00
65897;BME280;52677;50.898;10.854;2023-02-18T05:25:17;98754.22;;;8.78;100.00
65897;BME280;52677;50.898;10.854;2023-02-18T05:27:18;98763.53;;;8.73;100.00
65897;BME280;52677;50.898;10.854;2023-02-18T05:29:18;98754.84;;;8.71;100.00
65897;BME280;52677;50.898;10.854;2023-02-18T05:31:18;98757.84;;;8.66;100.00
65897;BME280;52677;50.898;10.854;2023-02-18T05:33:19;98751.97;;;8.68;100.00
65897;BME280;52677;50.898;10.854;2023-02-18T05:35:19;98751.28;;;8.71;100.00
65897;BME280;52677;50.898;10.854;2023-02-18T05:37:19;98745.19;;;8.81;100.00
65897;BME280;52677;50.898;10.854;2023-02-18T05:39:20;98748.81;;;8.85;100.00
65897;BME280;52677;50.898;10.854;2023-02-18T05:41:20;98738.00;;;8.77;100.00
65897;BME280;52677;50.898;10.854;2023-02-18T05:43:20;98734.09;;;8.78;100.00
65897;BME280;52677;50.898;10.854;2023-02-18T05:45:21;98737.19;;;8.76;100.00
65897;BME280;52677;50.898;10.854;2023-02-18T05:47:21;98737.13;;;8.72;100.00
65897;BME280;52677;50.898;10.854;2023-02-18T05:49:21;98735.22;;;8.77;100.00
65897;BME280;52677;50.898;10.854;2023-02-18T05:51:22;98741.41;;;8.70;100.00
65897;BME280;52677;50.898;10.854;2023-02-18T05:53:22;98727.63;;;8.70;100.00
65897;BME280;52677;50.898;10.854;2023-02-18T05:55:23;98726.16;;;8.76;100.00
65897;BME280;52677;50.898;10.854;2023-02-18T05:57:23;98726.53;;;8.75;100.00
65897;BME280;52677;50.898;10.854;2023-02-18T05:59:24;98732.66;;;8.68;100.00
65897;BME280;52677;50.898;10.854;2023-02-18T06:01:24;98725.19;;;8.68;100.00
65897;BME280;52677;50.898;10.854;2023-02-18T06:03:24;98727.88;;;8.65;100.00
65897;BME280;52677;50.898;10.854;2023-02-18T06:05:25;98726.81;;;8.69;100.00
65897;BME280;52677;50.898;10.854;2023-02-18T06:07:25;98719.69;;;8.68;100.00
65897;BME280;52677;50.898;10.854;2023-02-18T06:09:25;98712.72;;;8.75;100.00
65897;BME280;52677;50.898;10.854;2023-02-18T06:11:26;98711.06;;;8.70;100.00
65897;BME280;52677;50.898;10.854;2023-02-18T06:13:26;98715.84;;;8.73;100.00
65897;BME280;52677;50.898;10.854;2023-02-18T06:15:26;98693.50;;;8.78;100.00
65897;BME280;52677;50.898;10.854;2023-02-18T06:17:27;98698.03;;;8.86;100.00
65897;BME280;52677;50.898;10.854;2023-02-18T06:19:27;98692.84;;;8.85;100.00
65897;BME280;52677;50.898;10.854;2023-02-18T06:21:27;98703.44;;;8.83;100.00
65897;BME280;52677;50.898;10.854;2023-02-18T06:23:28;98700.25;;;8.81;100.00
65897;BME280;52677;50.898;10.854;2023-02-18T06:25:28;98696.28;;;8.78;100.00
65897;BME280;52677;50.898;10.854;2023-02-18T06:27:28;98689.97;;;8.78;100.00
65897;BME280;52677;50.898;10.854;2023-02-18T06:29:29;98686.09;;;8.82;100.00
65897;BME280;52677;50.898;10.854;2023-02-18T06:31:30;98690.44;;;8.83;100.00
65897;BME280;52677;50.898;10.854;2023-02-18T06:33:30;98690.44;;;8.83;100.00
65897;BME280;52677;50.898;10.854;2023-02-18T06:35:31;98686.84;;;8.79;100.00
65897;BME280;52677;50.898;10.854;2023-02-18T06:37:32;98689.50;;;8.76;100.00
65897;BME280;52677;50.898;10.854;2023-02-18T06:39:32;98674.91;;;8.75;100.00
65897;BME280;52677;50.898;10.854;2023-02-18T06:41:33;98671.34;;;8.75;100.00
65897;BME280;52677;50.898;10.854;2023-02-18T06:43:33;98678.47;;;8.76;100.00
65897;BME280;52677;50.898;10.854;2023-02-18T06:45:34;98677.22;;;8.73;100.00
65897;BME280;52677;50.898;10.854;2023-02-18T06:47:34;98675.28;;;8.73;100.00
65897;BME280;52677;50.898;10.854;2023-02-18T06:49:34;98675.06;;;8.82;100.00
65897;BME280;52677;50.898;10.854;2023-02-18T06:51:35;98671.13;;;8.83;100.00
65897;BME280;52677;50.898;10.854;2023-02-18T06:53:35;98671.50;;;8.82;100.00
65897;BME280;52677;50.898;10.854;2023-02-18T06:55:36;98649.44;;;8.82;100.00
65897;BME280;52677;50.898;10.854;2023-02-18T06:57:37;98648.91;;;8.76;100.00
65897;BME280;52677;50.898;10.854;2023-02-18T06:59:37;98650.88;;;8.76;100.00
65897;BME280;52677;50.898;10.854;2023-02-18T07:01:37;98656.31;;;8.72;100.00
65897;BME280;52677;50.898;10.854;2023-02-18T07:03:38;98651.59;;;8.72;100.00
65897;BME280;52677;50.898;10.854;2023-02-18T07:05:38;98657.94;;;8.73;100.00
65897;BME280;52677;50.898;10.854;2023-02-18T07:07:38;98660.31;;;8.75;100.00
65897;BME280;52677;50.898;10.854;2023-02-18T07:09:39;98655.22;;;8.77;100.00
65897;BME280;52677;50.898;10.854;2023-02-18T07:11:39;98649.00;;;8.80;100.00
65897;BME280;52677;50.898;10.854;2023-02-18T07:13:39;98632.16;;;8.85;100.00
65897;BME280;52677;50.898;10.854;2023-02-18T07:15:40;98631.44;;;8.88;100.00
65897;BME280;52677;50.898;10.854;2023-02-18T07:17:40;98629.91;;;8.90;100.00
65897;BME280;52677;50.898;10.854;2023-02-18T07:19:41;98629.69;;;8.99;100.00
65897;BME280;52677;50.898;10.854;2023-02-18T07:21:42;98617.09;;;9.01;100.00
65897;BME280;52677;50.898;10.854;2023-02-18T07:23:42;98623.22;;;9.11;100.00
65897;BME280;52677;50.898;10.854;2023-02-18T07:25:42;98624.81;;;9.12;100.00
65897;BME280;52677;50.898;10.854;2023-02-18T07:27:43;98617.75;;;9.14;100.00
65897;BME280;52677;50.898;10.854;2023-02-18T07:29:43;98621.31;;;9.15;100.00
65897;BME280;52677;50.898;10.854;2023-02-18T07:31:43;98614.63;;;9.16;100.00
65897;BME280;52677;50.898;10.854;2023-02-18T07:33:44;98610.34;;;9.18;100.00
65897;BME280;52677;50.898;10.854;2023-02-18T07:35:44;98607.22;;;9.20;100.00
65897;BME280;52677;50.898;10.854;2023-02-18T07:37:46;98595.81;;;9.21;100.00
65897;BME280;52677;50.898;10.854;2023-02-18T07:39:46;98592.25;;;9.21;100.00
65897;BME280;52677;50.898;10.854;2023-02-18T07:41:47;98581.22;;;9.21;100.00
65897;BME280;52677;50.898;10.854;2023-02-18T07:43:47;98589.25;;;9.29;100.00
65897;BME280;52677;50.898;10.854;2023-02-18T07:45:48;98579.19;;;9.41;100.00
65897;BME280;52677;50.898;10.854;2023-02-18T07:47:49;98576.56;;;9.48;100.00
65897;BME280;52677;50.898;10.854;2023-02-18T07:49:49;98582.50;;;9.50;100.00
65897;BME280;52677;50.898;10.854;2023-02-18T07:51:49;98595.59;;;9.53;100.00
65897;BME280;52677;50.898;10.854;2023-02-18T07:53:50;98588.25;;;9.61;100.00
65897;BME280;52677;50.898;10.854;2023-02-18T07:55:50;98564.09;;;9.57;100.00
65897;BME280;52677;50.898;10.854;2023-02-18T07:57:51;98577.50;;;9.55;100.00
65897;BME280;52677;50.898;10.854;2023-02-18T07:59:59;98577.91;;;9.57;100.00
65897;BME280;52677;50.898;10.854;2023-02-18T08:01:59;98570.91;;;9.64;100.00
65897;BME280;52677;50.898;10.854;2023-02-18T08:04:00;98571.75;;;9.68;100.00
65897;BME280;52677;50.898;10.854;2023-02-18T08:06:01;98559.06;;;9.63;100.00
65897;BME280;52677;50.898;10.854;2023-02-18T08:08:02;98559.63;;;9.72;100.00
65897;BME280;52677;50.898;10.854;2023-02-18T08:10:03;98579.75;;;9.73;100.00
65897;BME280;52677;50.898;10.854;2023-02-18T08:12:04;98582.13;;;9.74;100.00
65897;BME280;52677;50.898;10.854;2023-02-18T08:14:05;98569.63;;;9.80;100.00
65897;BME280;52677;50.898;10.854;2023-02-18T08:16:05;98562.88;;;9.78;100.00
65897;BME280;52677;50.898;10.854;2023-02-18T08:18:06;98566.84;;;9.80;100.00
65897;BME280;52677;50.898;10.854;2023-02-18T08:20:07;98548.31;;;9.81;100.00
65897;BME280;52677;50.898;10.854;2023-02-18T08:22:07;98554.69;;;9.85;100.00
65897;BME280;52677;50.898;10.854;2023-02-18T08:24:09;98540.88;;;9.85;100.00
65897;BME280;52677;50.898;10.854;2023-02-18T08:26:10;98547.19;;;9.85;100.00
65897;BME280;52677;50.898;10.854;2023-02-18T08:28:10;98552.78;;;9.89;100.00
65897;BME280;52677;50.898;10.854;2023-02-18T08:30:11;98552.47;;;9.94;100.00
65897;BME280;52677;50.898;10.854;2023-02-18T08:32:12;98556.44;;;9.97;100.00
65897;BME280;52677;50.898;10.854;2023-02-18T08:34:12;98574.69;;;10.01;100.00
65897;BME280;52677;50.898;10.854;2023-02-18T08:36:13;98566.84;;;10.07;100.00
65897;BME280;52677;50.898;10.854;2023-02-18T08:38:13;98577.59;;;10.12;100.00
65897;BME280;52677;50.898;10.854;2023-02-18T08:40:14;98560.09;;;10.04;100.00
65897;BME280;52677;50.898;10.854;2023-02-18T08:42:14;98559.31;;;10.04;100.00
65897;BME280;52677;50.898;10.854;2023-02-18T08:44:15;98557.03;;;10.09;100.00
65897;BME280;52677;50.898;10.854;2023-02-18T08:46:16;98543.25;;;10.13;100.00
65897;BME280;52677;50.898;10.854;2023-02-18T08:48:16;98542.50;;;10.16;100.00
65897;BME280;52677;50.898;10.854;2023-02-18T08:50:17;98559.88;;;10.17;100.00
65897;BME280;52677;50.898;10.854;2023-02-18T08:52:20;98532.22;;;10.17;100.00
65897;BME280;52677;50.898;10.854;2023-02-18T08:54:20;98537.34;;;10.14;100.00
65897;BME280;52677;50.898;10.854;2023-02-18T08:56:21;98530.66;;;10.16;100.00
65897;BME280;52677;50.898;10.854;2023-02-18T08:58:21;98541.31;;;10.17;100.00
65897;BME280;52677;50.898;10.854;2023-02-18T09:00:21;98543.66;;;10.15;100.00
65897;BME280;52677;50.898;10.854;2023-02-18T09:02:22;98537.41;;;10.18;100.00
65897;BME280;52677;50.898;10.854;2023-02-18T09:04:22;98531.88;;;10.18;100.00
65897;BME280;52677;50.898;10.854;2023-02-18T09:06:23;98528.66;;;10.16;100.00
65897;BME280;52677;50.898;10.854;2023-02-18T09:08:23;98527.03;;;10.11;100.00
65897;BME280;52677;50.898;10.854;2023-02-18T09:10:24;98536.16;;;10.16;100.00
65897;BME280;52677;50.898;10.854;2023-02-18T09:12:24;98534.16;;;10.12;100.00
65897;BME280;52677;50.898;10.854;2023-02-18T09:14:25;98550.41;;;10.18;100.00
65897;BME280;52677;50.898;10.854;2023-02-18T09:16:25;98552.03;;;10.19;100.00
65897;BME280;52677;50.898;10.854;2023-02-18T09:18:27;98557.25;;;10.24;100.00
65897;BME280;52677;50.898;10.854;2023-02-18T09:20:27;98552.13;;;10.26;100.00
65897;BME280;52677;50.898;10.854;2023-02-18T09:22:27;98562.84;;;10.27;100.00
65897;BME280;52677;50.898;10.854;2023-02-18T09:24:28;98562.88;;;10.31;100.00
65897;BME280;52677;50.898;10.854;2023-02-18T09:26:28;98557.63;;;10.22;100.00
65897;BME280;52677;50.898;10.854;2023-02-18T09:28:28;98553.25;;;10.21;100.00
65897;BME280;52677;50.898;10.854;2023-02-18T09:30:29;98573.84;;;10.24;100.00
65897;BME280;52677;50.898;10.854;2023-02-18T09:32:29;98581.16;;;10.12;100.00
65897;BME280;52677;50.898;10.854;2023-02-18T09:34:29;98579.16;;;10.09;100.00
65897;BME280;52677;50.898;10.854;2023-02-18T09:36:31;98568.09;;;10.09;100.00
65897;BME280;52677;50.898;10.854;2023-02-18T09:38:32;98583.13;;;10.12;100.00
65897;BME280;52677;50.898;10.854;2023-02-18T09:40:34;98584.63;;;10.06;100.00
65897;BME280;52677;50.898;10.854;2023-02-18T09:42:36;98573.44;;;9.99;100.00
65897;BME280;52677;50.898;10.854;2023-02-18T09:44:44;98573.88;;;10.01;100.00
65897;BME280;52677;50.898;10.854;2023-02-18T09:46:59;98569.47;;;9.96;100.00
65897;BME280;52677;50.898;10.854;2023-02-18T09:49:03;98567.13;;;9.98;100.00
65897;BME280;52677;50.898;10.854;2023-02-18T09:51:06;98586.88;;;10.00;100.00
65897;BME280;52677;50.898;10.854;2023-02-18T09:53:10;98556.84;;;9.99;100.00
65897;BME280;52677;50.898;10.854;2023-02-18T09:55:18;98567.88;;;9.95;100.00
65897;BME280;52677;50.898;10.854;2023-02-18T09:57:28;98553.53;;;9.86;100.00
65897;BME280;52677;50.898;10.854;2023-02-18T09:59:30;98570.81;;;9.83;100.00
65897;BME280;52677;50.898;10.854;2023-02-18T10:01:33;98571.69;;;9.87;100.00
65897;BME280;52677;50.898;10.854;2023-02-18T10:03:36;98552.78;;;9.89;100.00
65897;BME280;52677;50.898;10.854;2023-02-18T10:05:40;98542.59;;;9.93;100.00
65897;BME280;52677;50.898;10.854;2023-02-18T10:07:42;98540.97;;;9.92;100.00
65897;BME280;52677;50.898;10.854;2023-02-18T10:09:44;98538.16;;;9.89;100.00
65897;BME280;52677;50.898;10.854;2023-02-18T10:11:49;98544.53;;;9.93;100.00
65897;BME280;52677;50.898;10.854;2023-02-18T10:13:51;98532.78;;;9.99;100.00
65897;BME280;52677;50.898;10.854;2023-02-18T10:15:52;98543.47;;;10.01;100.00
65897;BME280;52677;50.898;10.854;2023-02-18T10:17:56;98527.22;;;9.96;100.00
65897;BME280;52677;50.898;10.854;2023-02-18T10:19:57;98534.81;;;10.02;100.00
65897;BME280;52677;50.898;10.854;2023-02-18T10:22:00;98528.50;;;10.02;100.00
65897;BME280;52677;50.898;10.854;2023-02-18T10:26:24;98537.88;;;9.97;100.00
65897;BME280;52677;50.898;10.854;2023-02-18T10:28:25;98538.19;;;9.92;100.00
65897;BME280;52677;50.898;10.854;2023-02-18T10:30:36;98554.78;;;9.92;100.00
65897;BME280;52677;50.898;10.854;2023-02-18T10:32:39;98532.94;;;9.83;100.00
65897;BME280;52677;50.898;10.854;2023-02-18T10:36:50;98529.09;;;9.65;100.00
65897;BME280;52677;50.898;10.854;2023-02-18T10:39:18;98541.69;;;9.63;100.00
65897;BME280;52677;50.898;10.854;2023-02-18T10:43:44;98540.78;;;9.55;100.00
65897;BME280;52677;50.898;10.854;2023-02-18T10:48:35;98541.22;;;9.57;100.00
65897;BME280;52677;50.898;10.854;2023-02-18T10:50:41;98538.06;;;9.58;100.00
65897;BME280;52677;50.898;10.854;2023-02-18T10:52:44;98531.31;;;9.56;100.00
65897;BME280;52677;50.898;10.854;2023-02-18T10:56:58;98532.53;;;9.58;100.00
65897;BME280;52677;50.898;10.854;2023-02-18T10:59:23;98515.63;;;9.60;100.00
65897;BME280;52677;50.898;10.854;2023-02-18T11:01:24;98523.19;;;9.67;100.00
65897;BME280;52677;50.898;10.854;2023-02-18T11:03:37;98516.31;;;9.80;100.00
65897;BME280;52677;50.898;10.854;2023-02-18T11:05:39;98515.44;;;9.76;100.00
65897;BME280;52677;50.898;10.854;2023-02-18T11:07:45;98512.38;;;9.81;100.00
65897;BME280;52677;50.898;10.854;2023-02-18T11:09:49;98509.63;;;9.81;100.00
65897;BME280;52677;50.898;10.854;2023-02-18T11:12:00;98520.25;;;9.79;100.00
65897;BME280;52677;50.898;10.854;2023-02-18T11:14:03;98524.50;;;9.73;100.00
65897;BME280;52677;50.898;10.854;2023-02-18T11:16:04;98510.00;;;9.79;100.00